Ellington, Missouri
Current Conditions -  °F | °C
As of 10:15 PM on Wednesday 28 Jan 2015 (Local Time) from KFAM Reporting Station
Scattered Clouds Scattered Clouds  
Wind Chill: 39°   Ceiling: Unl
Heat Index: 46°   Visibility: 10mi
Dew Point: 34°   Wind: 18mph
Humidity: 62%   Direction: 190°S
Pressure: 29.94"   Gusts: 25mph
Location:  37.24°N, 90.97°W
Report Text: KFAM 290415Z AUTO 19016G22KT 10SM SCT120 08/01 A2994 RMK AO1
Loading
Personal Weather Stations






























Interactive Weather Map New forecast layout! Learn more

10-Day Weather Forecast

Advertisements
Track Severe Weather on mobile